Terminal Aerodrome Forecast
Issued by NWS

Home | Current Version | Previous Version | Graphics & Text | Print | Product List | Glossary On
Versions: 1 2 3 4 5 6 7 8 9 10 11 12 13 14 15 16 17 18 19 20 21 22 23 24 25 26 27
000
FTUS45 KGGW 041123
TAFGDV
TAF
KGDV 041123Z 0412/0512 36011KT P6SM VCSH OVC080
     FM041800 04011KT P6SM BKN100
     FM050000 02009KT P6SM BKN070
     FM050600 01013KT P6SM VCSH OVC040
      AMD LTD TO CLD VIS AND WIND=

USA.gov is the U.S. government's official web portal to all federal, state and local government web resources and services.